Orbital elements of SAUDISAT 5A
| Launched | 6 December 2018 |
| Flight ended | – |
| Launch site | Jiuquan Space Center, PRC |
| Owner | Saudi Arabia |
| NORAD ID | 43831 |
| Date fetched |
Epoch osculation |
Inc. [°] |
Ecc. | RA asc node [hr] |
Arg Peri. [°] |
Mean anom [°] |
Mean motion [rev/day] |
Abs. mag |
| Date fetched |
Epoch osculation |
Inc. [°] |
Ecc. | RA asc node [hr] |
Arg Peri. [°] |
Mean anom [°] |
Mean motion [rev/day] |
Abs. mag |
| 2026 May 01 17:56 | 2026 May 01 12:45:34 | 97.3101 | 0.00082 | 12.2680 | 304.5179 | 55.5290 | 15.27570 | – |
| 2026 Apr 30 17:56 | 2026 Apr 30 11:36:19 | 97.3103 | 0.00082 | 12.1995 | 308.8342 | 55.5290 | 15.27570 | – |
| 2026 Apr 29 17:57 | 2026 Apr 29 12:01:22 | 97.3105 | 0.00083 | 12.1353 | 312.8542 | 55.5290 | 15.27570 | – |
| 2026 Apr 28 17:56 | 2026 Apr 28 12:26:25 | 97.3107 | 0.00083 | 12.0711 | 316.9857 | 55.5290 | 15.27570 | – |
| 2026 Apr 27 17:58 | 2026 Apr 27 12:51:28 | 97.3107 | 0.00084 | 12.0068 | 321.1082 | 55.5290 | 15.27570 | – |
| 2026 Apr 26 17:58 | 2026 Apr 26 11:42:10 | 97.3108 | 0.00085 | 11.9383 | 325.2784 | 55.5290 | 15.27570 | – |
| 2026 Apr 25 17:58 | 2026 Apr 25 12:07:11 | 97.3107 | 0.00086 | 11.8741 | 329.2017 | 55.5290 | 15.27570 | – |
| 2026 Apr 24 17:59 | 2026 Apr 24 12:32:11 | 97.3106 | 0.00086 | 11.8099 | 333.2244 | 55.5290 | 15.27570 | – |
| 2026 Apr 23 17:57 | 2026 Apr 23 06:39:51 | 97.3106 | 0.00088 | 11.7285 | 338.0018 | 55.5290 | 15.27570 | – |
| 2026 Apr 22 17:57 | 2026 Apr 22 07:04:50 | 97.3105 | 0.00089 | 11.6643 | 341.6995 | 55.5290 | 15.27570 | – |
| 2026 Apr 21 17:57 | 2026 Apr 21 12:12:49 | 97.3105 | 0.00089 | 11.6129 | 344.7745 | 55.5290 | 15.27570 | – |
| 2026 Apr 20 17:57 | 2026 Apr 20 12:37:48 | 97.3108 | 0.00091 | 11.5487 | 348.5549 | 55.5290 | 15.27570 | – |
| 2026 Apr 19 17:58 | 2026 Apr 19 13:02:46 | 97.3110 | 0.00092 | 11.4844 | 352.1334 | 55.5290 | 15.27570 | – |
| 2026 Apr 18 17:56 | 2026 Apr 18 07:10:22 | 97.3115 | 0.00093 | 11.4031 | 356.6159 | 55.5290 | 15.27570 | – |
| 2026 Apr 16 17:57 | 2026 Apr 16 08:00:16 | 97.3120 | 0.00095 | 11.2746 | 3.6591 | 55.5290 | 15.27570 | – |
| 2026 Apr 14 17:57 | 2026 Apr 14 11:58:48 | 97.3124 | 0.00097 | 11.1547 | 10.0070 | 55.5290 | 15.27570 | – |
| 2026 Apr 13 17:57 | 2026 Apr 13 06:06:23 | 97.3126 | 0.00099 | 11.0733 | 14.4781 | 55.5290 | 15.27570 | – |
| 2026 Apr 12 17:57 | 2026 Apr 12 12:48:39 | 97.3127 | 0.00099 | 11.0262 | 16.9648 | 55.5290 | 15.27570 | – |
| 2026 Apr 11 17:57 | 2026 Apr 11 11:39:14 | 97.3127 | 0.00100 | 10.9577 | 20.3953 | 55.5290 | 15.27570 | – |
| 2026 Apr 10 17:58 | 2026 Apr 10 05:46:47 | 97.3126 | 0.00102 | 10.8764 | 24.7841 | 55.5290 | 15.27570 | – |
| 2026 Apr 09 18:01 | 2026 Apr 09 07:46:01 | 97.3126 | 0.00103 | 10.8164 | 27.8789 | 55.5290 | 15.27570 | – |
| 2026 Apr 08 17:57 | 2026 Apr 08 06:36:34 | 97.3127 | 0.00104 | 10.7479 | 31.1935 | 55.5290 | 15.27570 | – |
| 2026 Apr 07 17:57 | 2026 Apr 07 05:27:06 | 97.3127 | 0.00105 | 10.6793 | 34.6002 | 55.5290 | 15.27570 | – |
| 2026 Apr 06 17:57 | 2026 Apr 06 05:51:58 | 97.3129 | 0.00106 | 10.6151 | 37.8943 | 55.5290 | 15.27570 | – |
| 2026 Apr 05 17:56 | 2026 Apr 05 12:34:11 | 97.3131 | 0.00106 | 10.5680 | 40.1849 | 55.5290 | 15.27570 | – |
| 2026 Apr 04 17:57 | 2026 Apr 04 06:41:39 | 97.3133 | 0.00108 | 10.4866 | 44.2459 | 55.5290 | 15.27570 | – |